Time;durP1;ratioP1;P1;durP2;ratioP2;P2;SDS_P1;SDS_P2;PMS_P1;PMS_P2;Temp;Humidity;BMP_temperature;BMP_pressure;BME280_temperature;BME280_humidity;BME280_pressure;Samples;Min_cycle;Max_cycle;Signal;HPM_P1;HPM_P2
2022/04/17 00:00:46;;;;;;;0.70;0.70;;;;;;;;;;5074729;28;20185;-74
2022/04/17 00:03:13;;;;;;;0.70;0.63;;;;;;;;;;5073375;28;20204;-74
2022/04/17 00:05:40;;;;;;;0.73;0.70;;;;;;;;;;5071436;28;20539;-74
2022/04/17 00:08:09;;;;;;;0.70;0.70;;;;;;;;;;5055034;28;20197;-74
2022/04/17 00:10:36;;;;;;;0.80;0.70;;;;;;;;;;5073218;28;20201;-74
2022/04/17 00:13:04;;;;;;;0.70;0.70;;;;;;;;;;5075213;28;20190;-75
2022/04/17 00:15:31;;;;;;;0.70;0.70;;;;;;;;;;5073787;28;20209;-74
2022/04/17 00:17:58;;;;;;;1.05;0.90;;;;;;;;;;5072268;28;20608;-74
2022/04/17 00:20:24;;;;;;;0.80;0.70;;;;;;;;;;5073854;28;20197;-73
2022/04/17 00:22:51;;;;;;;0.70;0.70;;;;;;;;;;5075163;28;20205;-73
2022/04/17 00:25:19;;;;;;;0.70;0.60;;;;;;;;;;5071634;28;20264;-73
2022/04/17 00:27:46;;;;;;;0.70;0.70;;;;;;;;;;5073943;28;20207;-73
2022/04/17 00:30:14;;;;;;;0.70;0.70;;;;;;;;;;5073276;28;20243;-73
2022/04/17 00:32:41;;;;;;;0.70;0.60;;;;;;;;;;5072820;28;20196;-74
2022/04/17 00:35:08;;;;;;;0.70;0.60;;;;;;;;;;5070891;28;20293;-73
2022/04/17 00:37:35;;;;;;;0.70;0.60;;;;;;;;;;5072680;28;20201;-73
2022/04/17 00:40:02;;;;;;;0.80;0.70;;;;;;;;;;5071546;28;20224;-73
2022/04/17 00:42:31;;;;;;;0.70;0.60;;;;;;;;;;5073404;28;20204;-73
2022/04/17 00:44:57;;;;;;;0.85;0.80;;;;;;;;;;5070963;28;20197;-73
2022/04/17 00:47:24;;;;;;;0.75;0.68;;;;;;;;;;5072517;28;20205;-73
2022/04/17 00:49:51;;;;;;;0.70;0.70;;;;;;;;;;5073473;28;20216;-73
2022/04/17 00:52:20;;;;;;;0.80;0.70;;;;;;;;;;5073084;28;20205;-73
2022/04/17 00:54:48;;;;;;;0.80;0.80;;;;;;;;;;5074090;28;20291;-73
2022/04/17 00:57:16;;;;;;;0.80;0.70;;;;;;;;;;5071787;28;20193;-72
2022/04/17 00:59:45;;;;;;;0.70;0.70;;;;;;;;;;5073228;28;20187;-73
2022/04/17 01:02:14;;;;;;;0.80;0.70;;;;;;;;;;5074547;28;20181;-73
2022/04/17 01:04:42;;;;;;;0.70;0.60;;;;;;;;;;5056353;28;20665;-73
2022/04/17 01:07:10;;;;;;;0.73;0.65;;;;;;;;;;5057616;28;20216;-73
2022/04/17 01:09:37;;;;;;;0.80;0.70;;;;;;;;;;5065932;28;20189;-73
2022/04/17 01:12:08;;;;;;;0.70;0.70;;;;;;;;;;5052728;28;20182;-73
2022/04/17 01:14:36;;;;;;;0.70;0.70;;;;;;;;;;5060165;28;20267;-74
2022/04/17 01:17:06;;;;;;;0.70;0.60;;;;;;;;;;5070849;28;20199;-73
2022/04/17 01:19:37;;;;;;;0.70;0.60;;;;;;;;;;5072386;28;20193;-73
2022/04/17 01:22:07;;;;;;;0.80;0.80;;;;;;;;;;5055137;28;20223;-74
2022/04/17 01:27:19;;;;;;;0.80;0.70;;;;;;;;;;5053547;28;20638;-73
2022/04/17 01:29:47;;;;;;;0.80;0.70;;;;;;;;;;5051822;28;20198;-73
2022/04/17 01:32:14;;;;;;;0.80;0.70;;;;;;;;;;5051563;28;20661;-73
2022/04/17 01:34:42;;;;;;;0.80;0.80;;;;;;;;;;5047926;28;20240;-74
2022/04/17 01:37:11;;;;;;;0.80;0.70;;;;;;;;;;5073425;28;20224;-73
2022/04/17 01:39:38;;;;;;;0.80;0.80;;;;;;;;;;5053277;28;20658;-74
2022/04/17 01:42:06;;;;;;;0.70;0.60;;;;;;;;;;5053002;28;20202;-73
2022/04/17 01:44:33;;;;;;;0.82;0.82;;;;;;;;;;5057277;28;20201;-73
2022/04/17 01:47:01;;;;;;;0.70;0.60;;;;;;;;;;5072299;28;20189;-73
2022/04/17 01:49:28;;;;;;;0.80;0.70;;;;;;;;;;5071535;28;20225;-73
2022/04/17 01:51:56;;;;;;;0.77;0.70;;;;;;;;;;5074322;28;20697;-75
2022/04/17 01:54:32;;;;;;;0.80;0.80;;;;;;;;;;5072641;28;20673;-75
2022/04/17 01:56:58;;;;;;;0.70;0.70;;;;;;;;;;5051029;28;20246;-74
2022/04/17 01:59:26;;;;;;;0.80;0.75;;;;;;;;;;5054772;28;20193;-74
2022/04/17 02:01:56;;;;;;;0.80;0.70;;;;;;;;;;5071605;28;20197;-74
2022/04/17 02:04:27;;;;;;;0.80;0.70;;;;;;;;;;5072134;28;20197;-73
2022/04/17 02:06:54;;;;;;;0.90;0.90;;;;;;;;;;5056523;28;20209;-73
2022/04/17 02:09:22;;;;;;;0.77;0.77;;;;;;;;;;5071743;28;20197;-73
2022/04/17 02:11:53;;;;;;;0.80;0.70;;;;;;;;;;5058827;28;20279;-73
2022/04/17 02:14:21;;;;;;;0.80;0.80;;;;;;;;;;5076710;28;20232;-73
2022/04/17 02:16:49;;;;;;;0.75;0.70;;;;;;;;;;5074376;28;20219;-73
2022/04/17 02:19:19;;;;;;;0.80;0.73;;;;;;;;;;5075060;28;20189;-73
2022/04/17 02:21:47;;;;;;;0.80;0.80;;;;;;;;;;5075186;28;20211;-73
2022/04/17 02:24:14;;;;;;;0.80;0.80;;;;;;;;;;5074933;28;20220;-74
2022/04/17 02:26:42;;;;;;;0.90;0.80;;;;;;;;;;5058766;28;20654;-74
2022/04/17 02:29:12;;;;;;;0.80;0.80;;;;;;;;;;5055053;28;20209;-73
2022/04/17 02:31:42;;;;;;;0.70;0.70;;;;;;;;;;5055425;28;20537;-73
2022/04/17 02:34:11;;;;;;;0.80;0.70;;;;;;;;;;5072033;28;20235;-74
2022/04/17 02:36:38;;;;;;;1.38;1.27;;;;;;;;;;5038337;28;20628;-73
2022/04/17 02:39:05;;;;;;;0.70;0.70;;;;;;;;;;5054586;28;20296;-73
2022/04/17 02:41:33;;;;;;;0.80;0.70;;;;;;;;;;5054595;28;20197;-73
2022/04/17 02:44:01;;;;;;;0.70;0.70;;;;;;;;;;5054551;28;20555;-74
2022/04/17 02:49:16;;;;;;;0.80;0.70;;;;;;;;;;5076086;28;20181;-73
2022/04/17 02:51:43;;;;;;;0.80;0.80;;;;;;;;;;5075662;28;20229;-73
2022/04/17 02:54:09;;;;;;;0.80;0.70;;;;;;;;;;5074805;28;20189;-73
2022/04/17 02:56:36;;;;;;;0.80;0.70;;;;;;;;;;5059974;28;20209;-73
2022/04/17 02:59:03;;;;;;;0.80;0.80;;;;;;;;;;5056387;28;20181;-73
2022/04/17 03:07:01;;;;;;;0.80;0.75;;;;;;;;;;5071942;28;20216;-74
2022/04/17 03:09:30;;;;;;;0.95;0.90;;;;;;;;;;5075344;28;20646;-74
2022/04/17 03:11:57;;;;;;;0.80;0.80;;;;;;;;;;5075436;28;20181;-73
2022/04/17 03:14:25;;;;;;;0.80;0.75;;;;;;;;;;5074982;28;20196;-73
2022/04/17 03:16:53;;;;;;;0.73;0.70;;;;;;;;;;5070185;28;20248;-73
2022/04/17 03:19:21;;;;;;;0.80;0.80;;;;;;;;;;5071784;28;20275;-73
2022/04/17 03:21:47;;;;;;;0.70;0.60;;;;;;;;;;5073734;28;20315;-73
2022/04/17 03:24:15;;;;;;;0.70;0.60;;;;;;;;;;5065365;28;20193;-74
2022/04/17 03:26:42;;;;;;;0.80;0.70;;;;;;;;;;5054725;28;20259;-74
2022/04/17 03:29:09;;;;;;;0.80;0.80;;;;;;;;;;5054246;28;20259;-74
2022/04/17 03:31:37;;;;;;;0.80;0.80;;;;;;;;;;5053788;28;20280;-74
2022/04/17 03:34:08;;;;;;;0.80;0.80;;;;;;;;;;5055919;28;20189;-74
2022/04/17 03:36:39;;;;;;;0.70;0.70;;;;;;;;;;5054178;28;20736;-73
2022/04/17 03:39:06;;;;;;;0.80;0.70;;;;;;;;;;5055411;28;20259;-74
2022/04/17 03:41:33;;;;;;;0.80;0.80;;;;;;;;;;5053502;28;20236;-73
2022/04/17 03:44:02;;;;;;;0.70;0.70;;;;;;;;;;5055145;28;20646;-73
2022/04/17 03:46:29;;;;;;;0.70;0.70;;;;;;;;;;5069187;28;20280;-73
2022/04/17 03:48:55;;;;;;;0.88;0.88;;;;;;;;;;5077420;28;20205;-73
2022/04/17 03:51:23;;;;;;;0.70;0.60;;;;;;;;;;5074058;28;20262;-74
2022/04/17 03:53:50;;;;;;;0.80;0.80;;;;;;;;;;5073987;28;20213;-74
2022/04/17 03:56:17;;;;;;;0.80;0.77;;;;;;;;;;5074243;28;20232;-74
2022/04/17 03:58:44;;;;;;;0.70;0.70;;;;;;;;;;5073460;28;20645;-74
2022/04/17 04:01:11;;;;;;;0.90;0.90;;;;;;;;;;5088086;28;20245;-74
2022/04/17 04:03:39;;;;;;;0.80;0.75;;;;;;;;;;5094175;28;20658;-74
2022/04/17 04:06:06;;;;;;;0.88;0.88;;;;;;;;;;5080644;28;20213;-73
2022/04/17 04:08:34;;;;;;;0.80;0.75;;;;;;;;;;5090182;28;20200;-74
2022/04/17 04:11:01;;;;;;;0.80;0.80;;;;;;;;;;5093535;28;20196;-73
2022/04/17 04:13:27;;;;;;;0.70;0.70;;;;;;;;;;5094621;28;20225;-73
2022/04/17 04:15:55;;;;;;;0.80;0.77;;;;;;;;;;5082592;28;20295;-74
2022/04/17 04:18:22;;;;;;;0.70;0.60;;;;;;;;;;5074877;28;20200;-74
2022/04/17 04:20:48;;;;;;;0.80;0.70;;;;;;;;;;5074900;28;20225;-74
2022/04/17 04:23:16;;;;;;;0.80;0.77;;;;;;;;;;5074991;28;20215;-75
2022/04/17 04:25:45;;;;;;;0.70;0.70;;;;;;;;;;5071704;28;20200;-74
2022/04/17 04:28:33;;;;;;;0.90;0.90;;;;;;;;;;5074485;28;20683;-74
2022/04/17 04:31:00;;;;;;;0.70;0.60;;;;;;;;;;5074091;28;20223;-74
2022/04/17 04:33:26;;;;;;;0.70;0.60;;;;;;;;;;5055792;28;20200;-74
2022/04/17 04:35:53;;;;;;;0.70;0.70;;;;;;;;;;5071778;28;20292;-75
2022/04/17 04:38:20;;;;;;;0.80;0.70;;;;;;;;;;5072937;28;20262;-74
2022/04/17 04:40:48;;;;;;;0.80;0.70;;;;;;;;;;5073029;28;20195;-74
2022/04/17 04:43:16;;;;;;;0.70;0.60;;;;;;;;;;5074662;28;20181;-73
2022/04/17 04:51:13;;;;;;;0.70;0.70;;;;;;;;;;5073889;28;20286;-75
2022/04/17 04:53:41;;;;;;;0.70;0.70;;;;;;;;;;5073435;28;20192;-74
2022/04/17 04:56:10;;;;;;;0.75;0.73;;;;;;;;;;5061458;28;20331;-74
2022/04/17 04:58:37;;;;;;;0.80;0.75;;;;;;;;;;5053248;28;20174;-74
2022/04/17 05:01:04;;;;;;;0.80;0.77;;;;;;;;;;5054637;28;20174;-74
2022/04/17 05:03:31;;;;;;;0.80;0.80;;;;;;;;;;5053400;28;20197;-74
2022/04/17 05:05:59;;;;;;;0.80;0.77;;;;;;;;;;5052430;28;20293;-74
2022/04/17 05:08:27;;;;;;;0.70;0.70;;;;;;;;;;5054255;28;20197;-74
2022/04/17 05:10:55;;;;;;;0.80;0.80;;;;;;;;;;5053918;28;20261;-73
2022/04/17 05:13:23;;;;;;;0.80;0.75;;;;;;;;;;5065104;28;20197;-74
2022/04/17 05:15:50;;;;;;;1.13;1.00;;;;;;;;;;5071122;28;20212;-74
2022/04/17 05:18:18;;;;;;;0.70;0.70;;;;;;;;;;5074365;28;20184;-74
2022/04/17 05:20:45;;;;;;;0.70;0.65;;;;;;;;;;5072060;28;20262;-74
2022/04/17 05:23:29;;;;;;;0.70;0.70;;;;;;;;;;5072881;28;20181;-74
2022/04/17 05:25:58;;;;;;;0.77;0.75;;;;;;;;;;5053145;28;20200;-74
2022/04/17 05:28:27;;;;;;;0.80;0.70;;;;;;;;;;5072555;28;20189;-73
2022/04/17 05:30:55;;;;;;;0.80;0.70;;;;;;;;;;5073488;28;20185;-74
2022/04/17 05:33:22;;;;;;;0.80;0.73;;;;;;;;;;5055775;28;20207;-74
2022/04/17 05:35:49;;;;;;;0.80;0.80;;;;;;;;;;5070847;28;20228;-74
2022/04/17 05:38:16;;;;;;;0.73;0.70;;;;;;;;;;5073169;28;20227;-73
2022/04/17 05:40:45;;;;;;;0.70;0.70;;;;;;;;;;5072490;28;20197;-74
2022/04/17 05:43:12;;;;;;;0.70;0.60;;;;;;;;;;5073185;28;20173;-74
2022/04/17 05:45:41;;;;;;;0.80;0.70;;;;;;;;;;5066556;28;20247;-74
2022/04/17 05:48:09;;;;;;;0.70;0.60;;;;;;;;;;5057074;28;20174;-73
2022/04/17 05:50:37;;;;;;;0.70;0.60;;;;;;;;;;5094625;28;20204;-74
2022/04/17 05:53:04;;;;;;;0.80;0.77;;;;;;;;;;5094012;28;20275;-73
2022/04/17 05:55:31;;;;;;;0.75;0.70;;;;;;;;;;5087062;28;20196;-73
2022/04/17 05:57:58;;;;;;;0.70;0.60;;;;;;;;;;5058979;28;20191;-74
2022/04/17 06:00:25;;;;;;;0.80;0.70;;;;;;;;;;5077537;28;20196;-74
2022/04/17 06:02:54;;;;;;;1.23;1.08;;;;;;;;;;5077169;28;20220;-74
2022/04/17 06:05:21;;;;;;;0.80;0.70;;;;;;;;;;5074619;28;20189;-74
2022/04/17 06:07:48;;;;;;;0.80;0.70;;;;;;;;;;5059267;28;20267;-73
2022/04/17 06:10:15;;;;;;;0.82;0.82;;;;;;;;;;5058668;28;20201;-74
2022/04/17 06:12:43;;;;;;;0.70;0.70;;;;;;;;;;5074920;28;20197;-74
2022/04/17 06:15:11;;;;;;;0.75;0.63;;;;;;;;;;5057189;28;20194;-74
2022/04/17 06:17:38;;;;;;;0.70;0.70;;;;;;;;;;5077452;28;20216;-74
2022/04/17 06:20:08;;;;;;;0.80;0.70;;;;;;;;;;5074771;28;20563;-74
2022/04/17 06:22:37;;;;;;;0.70;0.70;;;;;;;;;;5076647;28;20208;-74
2022/04/17 06:25:08;;;;;;;0.80;0.80;;;;;;;;;;5074726;28;20306;-74
2022/04/17 06:27:35;;;;;;;0.80;0.70;;;;;;;;;;5075197;28;20224;-74
2022/04/17 06:30:07;;;;;;;0.70;0.70;;;;;;;;;;5076391;28;20275;-75
2022/04/17 06:32:34;;;;;;;0.80;0.70;;;;;;;;;;5076320;28;20303;-76
2022/04/17 06:35:01;;;;;;;0.70;0.60;;;;;;;;;;5072332;28;20682;-75
2022/04/17 06:37:29;;;;;;;0.70;0.60;;;;;;;;;;5054582;28;20471;-75
2022/04/17 06:39:57;;;;;;;0.80;0.73;;;;;;;;;;5057745;28;20440;-75
2022/04/17 06:42:24;;;;;;;0.70;0.60;;;;;;;;;;5056368;28;20520;-75
2022/04/17 06:44:51;;;;;;;0.70;0.60;;;;;;;;;;5054949;28;20426;-75
2022/04/17 06:47:19;;;;;;;0.70;0.60;;;;;;;;;;5055490;28;20510;-75
2022/04/17 06:49:46;;;;;;;0.70;0.60;;;;;;;;;;5055116;28;20424;-74
2022/04/17 06:52:13;;;;;;;0.70;0.70;;;;;;;;;;5055630;28;20944;-75
2022/04/17 06:54:41;;;;;;;0.70;0.60;;;;;;;;;;5055579;28;20515;-76
2022/04/17 06:57:08;;;;;;;0.80;0.70;;;;;;;;;;5068973;28;20559;-76
2022/04/17 06:59:35;;;;;;;0.70;0.60;;;;;;;;;;5055988;28;20931;-75
2022/04/17 07:02:02;;;;;;;0.80;0.70;;;;;;;;;;5054674;28;20459;-75
2022/04/17 07:04:29;;;;;;;0.70;0.60;;;;;;;;;;5056652;28;20432;-75
2022/04/17 07:06:56;;;;;;;0.70;0.60;;;;;;;;;;5067660;28;20469;-75
2022/04/17 07:09:23;;;;;;;0.70;0.60;;;;;;;;;;5054956;28;20447;-75
2022/04/17 07:11:51;;;;;;;0.70;0.60;;;;;;;;;;5076686;28;20530;-75
2022/04/17 07:14:18;;;;;;;0.70;0.60;;;;;;;;;;5076212;28;20408;-75
2022/04/17 07:16:47;;;;;;;0.70;0.60;;;;;;;;;;5062029;28;20501;-75
2022/04/17 07:19:15;;;;;;;0.70;0.60;;;;;;;;;;5055565;28;20432;-75
2022/04/17 07:21:42;;;;;;;0.80;0.60;;;;;;;;;;5038026;28;20887;-76
2022/04/17 07:24:09;;;;;;;0.80;0.70;;;;;;;;;;5054147;28;20446;-75
2022/04/17 07:26:37;;;;;;;0.80;0.70;;;;;;;;;;5068123;28;20837;-73
2022/04/17 07:29:05;;;;;;;0.70;0.63;;;;;;;;;;5076192;28;20839;-75
2022/04/17 07:31:32;;;;;;;0.70;0.70;;;;;;;;;;5075529;28;20430;-75
2022/04/17 07:33:59;;;;;;;0.90;0.80;;;;;;;;;;5076816;28;20422;-75
2022/04/17 07:36:25;;;;;;;0.70;0.60;;;;;;;;;;5063099;28;21088;-75
2022/04/17 07:38:52;;;;;;;0.80;0.70;;;;;;;;;;5053852;28;20806;-74
2022/04/17 07:41:19;;;;;;;0.70;0.60;;;;;;;;;;5053736;28;20540;-73
2022/04/17 07:43:45;;;;;;;0.80;0.70;;;;;;;;;;5061085;28;20414;-74
2022/04/17 07:46:14;;;;;;;0.80;0.70;;;;;;;;;;5065546;28;20444;-74
2022/04/17 07:48:41;;;;;;;0.80;0.67;;;;;;;;;;5053957;28;20443;-75
2022/04/17 07:51:08;;;;;;;0.80;0.70;;;;;;;;;;5054275;28;20853;-74
2022/04/17 07:53:35;;;;;;;0.80;0.70;;;;;;;;;;5062373;28;20499;-75
2022/04/17 07:56:02;;;;;;;0.80;0.60;;;;;;;;;;5071966;28;20494;-75
2022/04/17 07:58:34;;;;;;;0.80;0.60;;;;;;;;;;5075848;28;20439;-75
2022/04/17 08:01:10;;;;;;;0.80;0.70;;;;;;;;;;5074879;28;20435;-74
2022/04/17 08:06:10;;;;;;;1.33;1.00;;;;;;;;;;5071745;28;20445;-74
2022/04/17 08:08:37;;;;;;;1.10;0.80;;;;;;;;;;5073535;28;20763;-73
2022/04/17 08:11:04;;;;;;;0.70;0.60;;;;;;;;;;5074213;28;20419;-74
2022/04/17 08:13:31;;;;;;;0.80;0.70;;;;;;;;;;5072854;28;20939;-74
2022/04/17 08:15:59;;;;;;;0.70;0.60;;;;;;;;;;5062235;28;20842;-73
2022/04/17 08:18:26;;;;;;;1.20;1.10;;;;;;;;;;5055019;28;20412;-74
2022/04/17 08:20:54;;;;;;;0.80;0.70;;;;;;;;;;5052973;28;20455;-74
2022/04/17 08:23:23;;;;;;;0.70;0.60;;;;;;;;;;5055377;28;20444;-73
2022/04/17 08:25:52;;;;;;;0.80;0.70;;;;;;;;;;5061111;28;20936;-74
2022/04/17 08:28:18;;;;;;;0.80;0.70;;;;;;;;;;5074101;28;20506;-75
2022/04/17 08:30:45;;;;;;;0.87;0.83;;;;;;;;;;5072775;28;20830;-74
2022/04/17 08:33:12;;;;;;;0.80;0.80;;;;;;;;;;5075304;28;20520;-73
2022/04/17 08:35:39;;;;;;;0.80;0.70;;;;;;;;;;5067406;28;20844;-75
2022/04/17 08:38:07;;;;;;;0.87;0.87;;;;;;;;;;5054605;28;20479;-75
2022/04/17 08:40:34;;;;;;;0.80;0.70;;;;;;;;;;5065064;28;20434;-73
2022/04/17 08:43:01;;;;;;;0.80;0.70;;;;;;;;;;5062038;28;20424;-74
2022/04/17 08:45:31;;;;;;;1.57;1.47;;;;;;;;;;5068498;28;20450;-77
2022/04/17 08:47:59;;;;;;;0.70;0.60;;;;;;;;;;5062527;28;20432;-77
2022/04/17 08:50:26;;;;;;;0.80;0.70;;;;;;;;;;5066498;28;20452;-74
2022/04/17 08:53:01;;;;;;;0.80;0.70;;;;;;;;;;5062227;28;20443;-75
2022/04/17 08:55:32;;;;;;;0.80;0.70;;;;;;;;;;5069968;28;20436;-75
2022/04/17 08:58:02;;;;;;;0.70;0.60;;;;;;;;;;5059456;28;20445;-76
2022/04/17 09:00:33;;;;;;;0.70;0.70;;;;;;;;;;5080651;28;20362;-76
2022/04/17 09:03:01;;;;;;;0.80;0.80;;;;;;;;;;5059012;28;20460;-75
2022/04/17 09:05:32;;;;;;;1.53;1.43;;;;;;;;;;5071259;28;20454;-78
2022/04/17 09:08:10;;;;;;;0.80;0.70;;;;;;;;;;5079244;28;20403;-77
2022/04/17 09:10:39;;;;;;;0.80;0.70;;;;;;;;;;5063179;28;20514;-76
2022/04/17 09:13:26;;;;;;;0.80;0.70;;;;;;;;;;5078191;28;20891;-74
2022/04/17 09:15:55;;;;;;;0.70;0.60;;;;;;;;;;5082331;28;20469;-74
2022/04/17 09:18:22;;;;;;;1.30;1.00;;;;;;;;;;5063558;28;20990;-75
2022/04/17 09:20:50;;;;;;;0.80;0.60;;;;;;;;;;5083540;28;20537;-75
2022/04/17 09:23:31;;;;;;;0.80;0.70;;;;;;;;;;5083105;28;20415;-76
2022/04/17 09:26:02;;;;;;;0.70;0.60;;;;;;;;;;5080615;28;20439;-75
2022/04/17 09:28:30;;;;;;;0.90;0.80;;;;;;;;;;5080452;28;20548;-75
2022/04/17 09:30:59;;;;;;;0.70;0.60;;;;;;;;;;5081691;28;20425;-76
2022/04/17 09:33:34;;;;;;;0.70;0.60;;;;;;;;;;5078377;28;20453;-75
2022/04/17 09:36:01;;;;;;;0.80;0.70;;;;;;;;;;5042183;28;20474;-75
2022/04/17 09:38:30;;;;;;;0.80;0.70;;;;;;;;;;5056635;28;20473;-76
2022/04/17 09:41:04;;;;;;;0.80;0.63;;;;;;;;;;5067641;28;20451;-76
2022/04/17 09:43:32;;;;;;;0.70;0.60;;;;;;;;;;5059025;28;20481;-77
2022/04/17 09:45:59;;;;;;;0.70;0.60;;;;;;;;;;5060899;28;20440;-75
2022/04/17 09:48:29;;;;;;;0.80;0.67;;;;;;;;;;5063347;28;20471;-77
2022/04/17 09:50:55;;;;;;;0.70;0.60;;;;;;;;;;5059449;28;20451;-75
2022/04/17 09:53:29;;;;;;;0.80;0.70;;;;;;;;;;5056319;28;20436;-76
2022/04/17 09:56:04;;;;;;;0.70;0.60;;;;;;;;;;5072429;28;20473;-76
2022/04/17 09:58:33;;;;;;;1.10;0.70;;;;;;;;;;5093976;28;20957;-75
2022/04/17 10:01:00;;;;;;;0.70;0.50;;;;;;;;;;5078966;28;20873;-76
2022/04/17 10:03:28;;;;;;;1.10;0.70;;;;;;;;;;5079517;28;20489;-75
2022/04/17 10:05:56;;;;;;;0.70;0.60;;;;;;;;;;5075543;28;20558;-74
2022/04/17 10:08:26;;;;;;;0.70;0.50;;;;;;;;;;5075574;28;20443;-75
2022/04/17 10:10:52;;;;;;;0.70;0.60;;;;;;;;;;5077928;28;20430;-76
2022/04/17 10:13:22;;;;;;;0.70;0.57;;;;;;;;;;5078354;28;20502;-76
2022/04/17 10:15:50;;;;;;;0.70;0.50;;;;;;;;;;5078096;28;20438;-77
2022/04/17 10:18:20;;;;;;;0.70;0.57;;;;;;;;;;5078679;28;20466;-75
2022/04/17 10:20:48;;;;;;;0.70;0.60;;;;;;;;;;5077574;28;20958;-75
2022/04/17 10:23:16;;;;;;;1.03;0.83;;;;;;;;;;5077768;28;20431;-74
2022/04/17 10:25:44;;;;;;;1.10;1.00;;;;;;;;;;5076790;28;20443;-76
2022/04/17 10:28:12;;;;;;;0.80;0.70;;;;;;;;;;5080626;28;20476;-77
2022/04/17 10:30:49;;;;;;;0.70;0.50;;;;;;;;;;5080052;28;20423;-77
2022/04/17 10:33:34;;;;;;;0.70;0.60;;;;;;;;;;5076980;28;20411;-76
2022/04/17 10:36:17;;;;;;;0.80;0.70;;;;;;;;;;5060649;28;20471;-76
2022/04/17 10:38:45;;;;;;;0.70;0.50;;;;;;;;;;5076929;28;20471;-77
2022/04/17 10:41:40;;;;;;;0.70;0.60;;;;;;;;;;5081725;28;20439;-76
2022/04/17 10:44:17;;;;;;;0.70;0.50;;;;;;;;;;5083136;28;20425;-76
2022/04/17 10:46:46;;;;;;;0.70;0.50;;;;;;;;;;5075140;28;20447;-77
2022/04/17 10:49:15;;;;;;;0.73;0.60;;;;;;;;;;5081011;28;20433;-78
2022/04/17 10:51:49;;;;;;;0.80;0.70;;;;;;;;;;5063377;28;20463;-78
2022/04/17 10:54:24;;;;;;;0.70;0.60;;;;;;;;;;5078828;28;20513;-77
2022/04/17 10:56:57;;;;;;;0.70;0.60;;;;;;;;;;5074360;28;20447;-75
2022/04/17 10:59:27;;;;;;;0.70;0.50;;;;;;;;;;5060039;28;20447;-76
2022/04/17 11:02:20;;;;;;;1.00;0.90;;;;;;;;;;5077595;28;20431;-78
2022/04/17 11:04:55;;;;;;;0.70;0.50;;;;;;;;;;5062375;28;20479;-79
2022/04/17 11:07:27;;;;;;;0.70;0.57;;;;;;;;;;5056054;28;20857;-78
2022/04/17 11:10:04;;;;;;;0.70;0.60;;;;;;;;;;5071866;28;20907;-77
2022/04/17 11:12:31;;;;;;;0.70;0.60;;;;;;;;;;5077805;28;20431;-76
2022/04/17 11:15:18;;;;;;;0.70;0.60;;;;;;;;;;5074013;28;20454;-77
2022/04/17 11:17:50;;;;;;;0.70;0.60;;;;;;;;;;5075508;28;20549;-74
2022/04/17 11:20:18;;;;;;;0.70;0.50;;;;;;;;;;5076106;28;20412;-75
2022/04/17 11:22:46;;;;;;;0.70;0.60;;;;;;;;;;5058096;28;20463;-76
2022/04/17 11:25:13;;;;;;;0.70;0.60;;;;;;;;;;5073276;28;20451;-75
2022/04/17 11:27:45;;;;;;;0.80;0.70;;;;;;;;;;5075896;28;20518;-75
2022/04/17 11:30:51;;;;;;;0.80;0.70;;;;;;;;;;5082017;28;20461;-77
2022/04/17 11:33:24;;;;;;;0.80;0.70;;;;;;;;;;5082107;28;20446;-74
2022/04/17 11:35:51;;;;;;;0.70;0.60;;;;;;;;;;5062261;28;20455;-76
2022/04/17 11:38:22;;;;;;;0.70;0.60;;;;;;;;;;5062717;28;20547;-75
2022/04/17 11:40:49;;;;;;;0.70;0.70;;;;;;;;;;5081305;28;20442;-75
2022/04/17 11:43:17;;;;;;;0.70;0.60;;;;;;;;;;5079393;28;20417;-75
2022/04/17 11:45:45;;;;;;;0.70;0.60;;;;;;;;;;5064745;28;20452;-76
2022/04/17 11:48:13;;;;;;;0.80;0.80;;;;;;;;;;5059664;28;20897;-76
2022/04/17 11:50:43;;;;;;;0.77;0.63;;;;;;;;;;5093184;28;20456;-76
2022/04/17 11:53:11;;;;;;;1.17;0.80;;;;;;;;;;5095375;28;20918;-73
2022/04/17 11:55:39;;;;;;;1.47;1.03;;;;;;;;;;5082339;28;20530;-76
2022/04/17 11:58:09;;;;;;;0.80;0.60;;;;;;;;;;5075528;28;20459;-76
2022/04/17 12:00:39;;;;;;;0.80;0.73;;;;;;;;;;5075925;28;20498;-76
2022/04/17 12:03:07;;;;;;;0.80;0.70;;;;;;;;;;5075688;28;20420;-75
2022/04/17 12:05:34;;;;;;;0.70;0.60;;;;;;;;;;5074030;28;20522;-76
2022/04/17 12:08:06;;;;;;;0.80;0.70;;;;;;;;;;5079622;28;20726;-74
2022/04/17 12:10:34;;;;;;;0.83;0.80;;;;;;;;;;5078454;28;20424;-75
2022/04/17 12:13:12;;;;;;;0.80;0.60;;;;;;;;;;5100546;28;20510;-75
2022/04/17 12:15:48;;;;;;;0.70;0.60;;;;;;;;;;5072773;28;20486;-74
2022/04/17 12:18:18;;;;;;;0.80;0.70;;;;;;;;;;5078702;28;20801;-76
2022/04/17 12:20:55;;;;;;;0.70;0.60;;;;;;;;;;5055499;28;20417;-76
2022/04/17 12:23:24;;;;;;;0.80;0.60;;;;;;;;;;5059686;28;20436;-75
2022/04/17 12:25:51;;;;;;;0.80;0.70;;;;;;;;;;5069022;28;20447;-74
2022/04/17 12:28:19;;;;;;;0.70;0.63;;;;;;;;;;5076160;28;20907;-74
2022/04/17 12:30:46;;;;;;;0.80;0.70;;;;;;;;;;5076258;28;20751;-73
2022/04/17 12:33:22;;;;;;;0.70;0.60;;;;;;;;;;5059780;28;20943;-76
2022/04/17 12:36:03;;;;;;;0.80;0.80;;;;;;;;;;5075454;28;20429;-73
2022/04/17 12:38:32;;;;;;;0.70;0.60;;;;;;;;;;5063381;28;20516;-77
2022/04/17 12:40:59;;;;;;;0.80;0.70;;;;;;;;;;5067531;28;20410;-76
2022/04/17 12:43:27;;;;;;;0.80;0.70;;;;;;;;;;5076093;28;20439;-75
2022/04/17 12:45:55;;;;;;;0.80;0.70;;;;;;;;;;5067318;28;20426;-74
2022/04/17 12:48:26;;;;;;;0.80;0.70;;;;;;;;;;5055491;28;20722;-73
2022/04/17 12:50:58;;;;;;;0.70;0.70;;;;;;;;;;5058421;28;20430;-76
2022/04/17 12:53:25;;;;;;;0.70;0.70;;;;;;;;;;5072007;28;20435;-77
2022/04/17 12:55:53;;;;;;;0.70;0.60;;;;;;;;;;5073821;28;20477;-75
2022/04/17 12:58:21;;;;;;;0.70;0.60;;;;;;;;;;5077860;28;20467;-75
2022/04/17 13:00:57;;;;;;;0.80;0.70;;;;;;;;;;5077885;28;20440;-75
2022/04/17 13:03:34;;;;;;;0.70;0.60;;;;;;;;;;5079635;28;20418;-75
2022/04/17 13:06:02;;;;;;;0.70;0.60;;;;;;;;;;5080321;28;20446;-75
2022/04/17 13:08:29;;;;;;;0.80;0.70;;;;;;;;;;5077860;28;20971;-78
2022/04/17 13:10:57;;;;;;;0.70;0.60;;;;;;;;;;5059388;28;20450;-74
2022/04/17 13:13:37;;;;;;;0.70;0.70;;;;;;;;;;5075762;28;20423;-76
2022/04/17 13:16:05;;;;;;;0.70;0.70;;;;;;;;;;5078435;28;20510;-77
2022/04/17 13:18:33;;;;;;;0.70;0.60;;;;;;;;;;5081558;28;20467;-75
2022/04/17 13:21:00;;;;;;;0.70;0.60;;;;;;;;;;5078166;28;20447;-75
2022/04/17 13:23:28;;;;;;;0.70;0.60;;;;;;;;;;5076650;28;20454;-76
2022/04/17 13:25:55;;;;;;;0.73;0.57;;;;;;;;;;5075382;28;20773;-76
2022/04/17 13:28:23;;;;;;;0.70;0.60;;;;;;;;;;5076149;28;20872;-75
2022/04/17 13:30:53;;;;;;;0.70;0.60;;;;;;;;;;5078143;28;20459;-77
2022/04/17 13:33:20;;;;;;;0.70;0.60;;;;;;;;;;5078021;28;20510;-76
2022/04/17 13:35:47;;;;;;;0.70;0.60;;;;;;;;;;5070941;28;20509;-76
2022/04/17 13:38:13;;;;;;;0.70;0.60;;;;;;;;;;5054977;28;20531;-76
2022/04/17 13:40:48;;;;;;;0.70;0.60;;;;;;;;;;5074334;28;20487;-74
2022/04/17 13:43:15;;;;;;;0.70;0.60;;;;;;;;;;5084609;28;20415;-74
2022/04/17 13:45:43;;;;;;;0.80;0.60;;;;;;;;;;5057219;28;20471;-76
2022/04/17 13:48:10;;;;;;;0.70;0.60;;;;;;;;;;5052534;28;20486;-75
2022/04/17 13:50:38;;;;;;;0.70;0.60;;;;;;;;;;5059844;28;20416;-76
2022/04/17 13:53:05;;;;;;;0.70;0.60;;;;;;;;;;5067893;28;20503;-74
2022/04/17 13:55:33;;;;;;;0.70;0.60;;;;;;;;;;5080087;28;20454;-76
2022/04/17 13:57:59;;;;;;;0.70;0.70;;;;;;;;;;5076021;28;20983;-74
2022/04/17 14:00:26;;;;;;;0.70;0.60;;;;;;;;;;5080292;28;20443;-75
2022/04/17 14:02:54;;;;;;;0.70;0.60;;;;;;;;;;5080361;28;20461;-77
2022/04/17 14:05:46;;;;;;;1.53;1.00;;;;;;;;;;5075864;28;20530;-77
2022/04/17 14:08:14;;;;;;;0.70;0.60;;;;;;;;;;5078860;28;20431;-76
2022/04/17 14:10:41;;;;;;;0.70;0.60;;;;;;;;;;5086790;28;20487;-74
2022/04/17 14:13:08;;;;;;;0.70;0.60;;;;;;;;;;5076379;28;20443;-74
2022/04/17 14:15:35;;;;;;;0.70;0.60;;;;;;;;;;5077493;28;20442;-75
2022/04/17 14:18:05;;;;;;;0.70;0.60;;;;;;;;;;5078786;28;20500;-75
2022/04/17 14:20:34;;;;;;;0.90;0.90;;;;;;;;;;5076963;28;20431;-75
2022/04/17 14:23:01;;;;;;;0.80;0.70;;;;;;;;;;5081276;28;20473;-75
2022/04/17 14:25:27;;;;;;;0.70;0.60;;;;;;;;;;5076696;28;20443;-74
2022/04/17 14:27:55;;;;;;;0.70;0.60;;;;;;;;;;5064425;28;20487;-75
2022/04/17 14:30:22;;;;;;;0.70;0.60;;;;;;;;;;5063145;28;20447;-74
2022/04/17 14:32:50;;;;;;;0.70;0.60;;;;;;;;;;5063500;28;20428;-74
2022/04/17 14:35:19;;;;;;;1.07;0.70;;;;;;;;;;5062021;28;20546;-75
2022/04/17 14:37:46;;;;;;;0.70;0.60;;;;;;;;;;5064032;28;20514;-74
2022/04/17 14:40:12;;;;;;;0.70;0.60;;;;;;;;;;5079879;28;20474;-75
2022/04/17 14:42:39;;;;;;;0.70;0.60;;;;;;;;;;5082429;28;20415;-75
2022/04/17 14:45:07;;;;;;;0.70;0.60;;;;;;;;;;5063298;28;20434;-76
2022/04/17 14:47:36;;;;;;;0.70;0.60;;;;;;;;;;5085933;28;20434;-76
2022/04/17 14:50:03;;;;;;;0.70;0.60;;;;;;;;;;5081699;28;20431;-76
2022/04/17 14:52:31;;;;;;;0.73;0.70;;;;;;;;;;5086168;28;20455;-73
2022/04/17 14:54:59;;;;;;;0.80;0.70;;;;;;;;;;5077145;28;20459;-75
2022/04/17 14:57:28;;;;;;;0.80;0.70;;;;;;;;;;5058160;28;20436;-75
2022/04/17 14:59:56;;;;;;;0.77;0.60;;;;;;;;;;5055706;28;20558;-73
2022/04/17 15:02:23;;;;;;;0.70;0.57;;;;;;;;;;5061254;28;20420;-75
2022/04/17 15:04:50;;;;;;;1.70;1.60;;;;;;;;;;5056356;28;20428;-73
2022/04/17 15:07:16;;;;;;;1.30;1.00;;;;;;;;;;5070613;28;20823;-74
2022/04/17 15:09:44;;;;;;;0.70;0.60;;;;;;;;;;5076015;28;20538;-74
2022/04/17 15:12:11;;;;;;;0.80;0.70;;;;;;;;;;5061805;28;20827;-75